sensor_id;sensor_type;location;lat;lon;timestamp;P1;durP1;ratioP1;P2;durP2;ratioP2
261;SDS011;114;48.260;10.988;2022-08-07T00:00:50;21.43;;;19.27;;
261;SDS011;114;48.260;10.988;2022-08-07T00:03:16;20.50;;;18.43;;
261;SDS011;114;48.260;10.988;2022-08-07T00:05:42;20.73;;;18.83;;
261;SDS011;114;48.260;10.988;2022-08-07T00:08:11;23.80;;;18.40;;
261;SDS011;114;48.260;10.988;2022-08-07T00:10:37;23.57;;;21.10;;
261;SDS011;114;48.260;10.988;2022-08-07T00:13:03;24.03;;;18.83;;
261;SDS011;114;48.260;10.988;2022-08-07T00:15:30;21.43;;;19.43;;
261;SDS011;114;48.260;10.988;2022-08-07T00:17:57;22.53;;;20.43;;
261;SDS011;114;48.260;10.988;2022-08-07T00:20:23;23.77;;;21.27;;
261;SDS011;114;48.260;10.988;2022-08-07T00:22:49;23.87;;;21.20;;
261;SDS011;114;48.260;10.988;2022-08-07T00:25:17;24.20;;;21.80;;
261;SDS011;114;48.260;10.988;2022-08-07T00:27:43;25.97;;;21.83;;
261;SDS011;114;48.260;10.988;2022-08-07T00:30:10;31.73;;;24.97;;
261;SDS011;114;48.260;10.988;2022-08-07T00:32:36;29.03;;;24.30;;
261;SDS011;114;48.260;10.988;2022-08-07T00:35:02;30.00;;;24.93;;
261;SDS011;114;48.260;10.988;2022-08-07T00:37:28;32.80;;;26.50;;
261;SDS011;114;48.260;10.988;2022-08-07T00:39:53;32.70;;;28.50;;
261;SDS011;114;48.260;10.988;2022-08-07T00:42:20;36.60;;;29.80;;
261;SDS011;114;48.260;10.988;2022-08-07T00:44:46;34.60;;;28.80;;
261;SDS011;114;48.260;10.988;2022-08-07T00:47:15;38.23;;;29.80;;
261;SDS011;114;48.260;10.988;2022-08-07T00:49:47;38.60;;;31.67;;
261;SDS011;114;48.260;10.988;2022-08-07T00:52:13;41.80;;;33.90;;
261;SDS011;114;48.260;10.988;2022-08-07T00:54:39;48.80;;;34.03;;
261;SDS011;114;48.260;10.988;2022-08-07T00:57:07;42.17;;;34.23;;
261;SDS011;114;48.260;10.988;2022-08-07T00:59:35;41.20;;;33.30;;
261;SDS011;114;48.260;10.988;2022-08-07T01:02:05;41.13;;;33.33;;
261;SDS011;114;48.260;10.988;2022-08-07T01:04:32;42.20;;;32.73;;
261;SDS011;114;48.260;10.988;2022-08-07T01:06:58;43.00;;;36.00;;
261;SDS011;114;48.260;10.988;2022-08-07T01:09:24;41.97;;;33.27;;
261;SDS011;114;48.260;10.988;2022-08-07T01:11:50;39.40;;;31.70;;
261;SDS011;114;48.260;10.988;2022-08-07T01:14:18;39.20;;;32.40;;
261;SDS011;114;48.260;10.988;2022-08-07T01:16:45;42.90;;;34.47;;
261;SDS011;114;48.260;10.988;2022-08-07T01:19:11;48.40;;;34.50;;
261;SDS011;114;48.260;10.988;2022-08-07T01:21:37;43.67;;;33.40;;
261;SDS011;114;48.260;10.988;2022-08-07T01:24:04;44.00;;;34.50;;
261;SDS011;114;48.260;10.988;2022-08-07T01:26:31;41.73;;;31.60;;
261;SDS011;114;48.260;10.988;2022-08-07T01:28:57;44.10;;;33.00;;
261;SDS011;114;48.260;10.988;2022-08-07T01:31:24;42.93;;;31.90;;
261;SDS011;114;48.260;10.988;2022-08-07T01:33:56;38.30;;;30.67;;
261;SDS011;114;48.260;10.988;2022-08-07T01:36:23;38.63;;;32.13;;
261;SDS011;114;48.260;10.988;2022-08-07T01:38:50;44.03;;;32.43;;
261;SDS011;114;48.260;10.988;2022-08-07T01:41:17;49.60;;;33.50;;
261;SDS011;114;48.260;10.988;2022-08-07T01:43:44;43.87;;;33.50;;
261;SDS011;114;48.260;10.988;2022-08-07T01:46:11;39.67;;;31.80;;
261;SDS011;114;48.260;10.988;2022-08-07T01:48:39;41.90;;;32.10;;
261;SDS011;114;48.260;10.988;2022-08-07T01:51:10;43.53;;;30.53;;
261;SDS011;114;48.260;10.988;2022-08-07T01:53:48;40.33;;;30.43;;
261;SDS011;114;48.260;10.988;2022-08-07T01:56:36;39.07;;;30.13;;
261;SDS011;114;48.260;10.988;2022-08-07T01:59:27;35.97;;;29.03;;
261;SDS011;114;48.260;10.988;2022-08-07T02:02:18;39.00;;;30.23;;
261;SDS011;114;48.260;10.988;2022-08-07T02:04:58;45.30;;;30.83;;
261;SDS011;114;48.260;10.988;2022-08-07T02:07:28;41.00;;;30.40;;
261;SDS011;114;48.260;10.988;2022-08-07T02:09:57;39.90;;;31.50;;
261;SDS011;114;48.260;10.988;2022-08-07T02:12:25;41.47;;;29.20;;
261;SDS011;114;48.260;10.988;2022-08-07T02:14:56;45.97;;;31.20;;
261;SDS011;114;48.260;10.988;2022-08-07T02:17:24;42.67;;;29.10;;
261;SDS011;114;48.260;10.988;2022-08-07T02:19:51;40.00;;;29.30;;
261;SDS011;114;48.260;10.988;2022-08-07T02:22:19;33.03;;;25.80;;
261;SDS011;114;48.260;10.988;2022-08-07T02:24:48;34.17;;;27.57;;
261;SDS011;114;48.260;10.988;2022-08-07T02:27:17;32.40;;;26.73;;
261;SDS011;114;48.260;10.988;2022-08-07T02:29:46;32.33;;;25.33;;
261;SDS011;114;48.260;10.988;2022-08-07T02:32:13;36.97;;;25.33;;
261;SDS011;114;48.260;10.988;2022-08-07T02:34:42;31.23;;;24.90;;
261;SDS011;114;48.260;10.988;2022-08-07T02:37:09;36.00;;;25.50;;
261;SDS011;114;48.260;10.988;2022-08-07T02:39:38;28.50;;;23.80;;
261;SDS011;114;48.260;10.988;2022-08-07T02:42:07;28.40;;;23.50;;
261;SDS011;114;48.260;10.988;2022-08-07T02:44:34;27.60;;;24.60;;
261;SDS011;114;48.260;10.988;2022-08-07T02:47:00;35.27;;;25.43;;
261;SDS011;114;48.260;10.988;2022-08-07T02:49:28;34.97;;;26.30;;
261;SDS011;114;48.260;10.988;2022-08-07T02:51:54;31.70;;;24.13;;
261;SDS011;114;48.260;10.988;2022-08-07T02:54:22;32.60;;;23.43;;
261;SDS011;114;48.260;10.988;2022-08-07T02:56:53;30.07;;;24.40;;
261;SDS011;114;48.260;10.988;2022-08-07T02:59:23;33.70;;;26.10;;
261;SDS011;114;48.260;10.988;2022-08-07T03:01:51;29.93;;;23.30;;
261;SDS011;114;48.260;10.988;2022-08-07T03:04:18;34.20;;;26.07;;
261;SDS011;114;48.260;10.988;2022-08-07T03:06:46;33.00;;;23.83;;
261;SDS011;114;48.260;10.988;2022-08-07T03:09:12;32.17;;;23.80;;
261;SDS011;114;48.260;10.988;2022-08-07T03:11:39;27.87;;;22.43;;
261;SDS011;114;48.260;10.988;2022-08-07T03:14:06;35.77;;;23.20;;
261;SDS011;114;48.260;10.988;2022-08-07T03:16:33;32.67;;;22.73;;
261;SDS011;114;48.260;10.988;2022-08-07T03:19:01;27.93;;;22.37;;
261;SDS011;114;48.260;10.988;2022-08-07T03:21:28;28.67;;;22.50;;
261;SDS011;114;48.260;10.988;2022-08-07T03:23:54;29.90;;;21.93;;
261;SDS011;114;48.260;10.988;2022-08-07T03:26:24;31.10;;;23.30;;
261;SDS011;114;48.260;10.988;2022-08-07T03:28:53;26.17;;;20.20;;
261;SDS011;114;48.260;10.988;2022-08-07T03:31:21;32.00;;;21.40;;
261;SDS011;114;48.260;10.988;2022-08-07T03:33:48;31.73;;;20.80;;
261;SDS011;114;48.260;10.988;2022-08-07T03:36:17;29.20;;;20.93;;
261;SDS011;114;48.260;10.988;2022-08-07T03:38:46;21.43;;;17.60;;
261;SDS011;114;48.260;10.988;2022-08-07T03:41:15;19.67;;;17.47;;
261;SDS011;114;48.260;10.988;2022-08-07T03:43:41;20.43;;;17.73;;
261;SDS011;114;48.260;10.988;2022-08-07T03:46:08;35.03;;;17.67;;
261;SDS011;114;48.260;10.988;2022-08-07T03:48:35;19.77;;;16.50;;
261;SDS011;114;48.260;10.988;2022-08-07T03:51:02;20.03;;;15.93;;
261;SDS011;114;48.260;10.988;2022-08-07T03:53:28;15.97;;;14.37;;
261;SDS011;114;48.260;10.988;2022-08-07T03:55:55;16.17;;;14.43;;
261;SDS011;114;48.260;10.988;2022-08-07T03:58:23;19.13;;;14.97;;
261;SDS011;114;48.260;10.988;2022-08-07T04:00:51;20.33;;;13.67;;
261;SDS011;114;48.260;10.988;2022-08-07T04:03:18;16.23;;;14.63;;
261;SDS011;114;48.260;10.988;2022-08-07T04:05:45;23.00;;;14.47;;
261;SDS011;114;48.260;10.988;2022-08-07T04:08:11;18.00;;;14.80;;
261;SDS011;114;48.260;10.988;2022-08-07T04:10:39;15.67;;;13.53;;
261;SDS011;114;48.260;10.988;2022-08-07T04:13:05;16.03;;;13.90;;
261;SDS011;114;48.260;10.988;2022-08-07T04:15:32;15.60;;;13.80;;
261;SDS011;114;48.260;10.988;2022-08-07T04:17:59;21.50;;;15.00;;
261;SDS011;114;48.260;10.988;2022-08-07T04:20:26;14.10;;;12.70;;
261;SDS011;114;48.260;10.988;2022-08-07T04:22:52;19.60;;;13.47;;
261;SDS011;114;48.260;10.988;2022-08-07T04:25:20;15.33;;;13.73;;
261;SDS011;114;48.260;10.988;2022-08-07T04:27:47;16.90;;;12.77;;
261;SDS011;114;48.260;10.988;2022-08-07T04:30:13;22.70;;;15.40;;
261;SDS011;114;48.260;10.988;2022-08-07T04:32:39;19.50;;;13.83;;
261;SDS011;114;48.260;10.988;2022-08-07T04:35:06;16.37;;;13.87;;
261;SDS011;114;48.260;10.988;2022-08-07T04:37:33;14.70;;;13.10;;
261;SDS011;114;48.260;10.988;2022-08-07T04:40:00;16.83;;;12.30;;
261;SDS011;114;48.260;10.988;2022-08-07T04:42:27;17.57;;;12.73;;
261;SDS011;114;48.260;10.988;2022-08-07T04:44:56;14.20;;;12.90;;
261;SDS011;114;48.260;10.988;2022-08-07T04:47:35;14.10;;;12.77;;
261;SDS011;114;48.260;10.988;2022-08-07T04:52:55;12.83;;;11.63;;
261;SDS011;114;48.260;10.988;2022-08-07T04:55:40;10.37;;;9.27;;
261;SDS011;114;48.260;10.988;2022-08-07T04:58:23;10.27;;;9.37;;
261;SDS011;114;48.260;10.988;2022-08-07T05:00:59;10.33;;;9.33;;
261;SDS011;114;48.260;10.988;2022-08-07T05:04:05;10.00;;;8.97;;
261;SDS011;114;48.260;10.988;2022-08-07T05:12:57;10.90;;;8.30;;
261;SDS011;114;48.260;10.988;2022-08-07T05:15:29;7.07;;;6.43;;
261;SDS011;114;48.260;10.988;2022-08-07T05:18:07;7.00;;;6.30;;
261;SDS011;114;48.260;10.988;2022-08-07T05:20:42;9.80;;;6.47;;
261;SDS011;114;48.260;10.988;2022-08-07T05:23:13;5.80;;;5.33;;
261;SDS011;114;48.260;10.988;2022-08-07T05:25:43;6.27;;;5.77;;
261;SDS011;114;48.260;10.988;2022-08-07T05:28:10;13.37;;;6.13;;
261;SDS011;114;48.260;10.988;2022-08-07T05:30:38;9.70;;;5.60;;
261;SDS011;114;48.260;10.988;2022-08-07T05:33:06;4.50;;;4.30;;
261;SDS011;114;48.260;10.988;2022-08-07T05:35:34;6.97;;;4.67;;
261;SDS011;114;48.260;10.988;2022-08-07T05:38:01;4.77;;;4.50;;
261;SDS011;114;48.260;10.988;2022-08-07T05:40:31;5.90;;;3.93;;
261;SDS011;114;48.260;10.988;2022-08-07T05:42:58;4.20;;;4.00;;
261;SDS011;114;48.260;10.988;2022-08-07T05:45:24;5.27;;;3.93;;
261;SDS011;114;48.260;10.988;2022-08-07T05:47:52;3.53;;;3.30;;
261;SDS011;114;48.260;10.988;2022-08-07T05:50:18;4.13;;;3.10;;
261;SDS011;114;48.260;10.988;2022-08-07T05:52:45;7.03;;;3.00;;
261;SDS011;114;48.260;10.988;2022-08-07T05:55:15;2.60;;;2.50;;
261;SDS011;114;48.260;10.988;2022-08-07T05:57:42;4.30;;;3.13;;
261;SDS011;114;48.260;10.988;2022-08-07T06:00:10;2.70;;;2.27;;
261;SDS011;114;48.260;10.988;2022-08-07T06:02:38;2.03;;;1.90;;
261;SDS011;114;48.260;10.988;2022-08-07T06:05:09;2.40;;;2.30;;
261;SDS011;114;48.260;10.988;2022-08-07T06:07:38;2.00;;;1.87;;
261;SDS011;114;48.260;10.988;2022-08-07T06:10:04;6.80;;;2.40;;
261;SDS011;114;48.260;10.988;2022-08-07T06:12:33;1.60;;;1.50;;
261;SDS011;114;48.260;10.988;2022-08-07T06:15:00;9.80;;;1.60;;
261;SDS011;114;48.260;10.988;2022-08-07T06:17:26;1.17;;;1.10;;
261;SDS011;114;48.260;10.988;2022-08-07T06:19:54;1.47;;;1.17;;
261;SDS011;114;48.260;10.988;2022-08-07T06:22:21;1.63;;;1.07;;
261;SDS011;114;48.260;10.988;2022-08-07T06:24:49;2.00;;;1.13;;
261;SDS011;114;48.260;10.988;2022-08-07T06:27:25;7.20;;;2.13;;
261;SDS011;114;48.260;10.988;2022-08-07T06:29:52;0.90;;;0.90;;
261;SDS011;114;48.260;10.988;2022-08-07T06:32:18;1.60;;;1.47;;
261;SDS011;114;48.260;10.988;2022-08-07T06:34:43;1.47;;;0.90;;
261;SDS011;114;48.260;10.988;2022-08-07T06:37:09;3.13;;;1.20;;
261;SDS011;114;48.260;10.988;2022-08-07T06:39:35;2.20;;;1.10;;
261;SDS011;114;48.260;10.988;2022-08-07T06:44:33;3.13;;;1.10;;
261;SDS011;114;48.260;10.988;2022-08-07T06:47:01;1.57;;;1.10;;
261;SDS011;114;48.260;10.988;2022-08-07T06:49:27;4.10;;;1.33;;
261;SDS011;114;48.260;10.988;2022-08-07T06:51:53;1.53;;;0.93;;
261;SDS011;114;48.260;10.988;2022-08-07T06:54:20;1.23;;;0.73;;
261;SDS011;114;48.260;10.988;2022-08-07T06:56:53;2.33;;;1.07;;
261;SDS011;114;48.260;10.988;2022-08-07T06:59:20;1.80;;;1.37;;
261;SDS011;114;48.260;10.988;2022-08-07T07:01:51;1.40;;;1.30;;
261;SDS011;114;48.260;10.988;2022-08-07T07:04:18;1.30;;;1.17;;
261;SDS011;114;48.260;10.988;2022-08-07T07:06:44;1.10;;;1.00;;
261;SDS011;114;48.260;10.988;2022-08-07T07:09:17;2.80;;;1.20;;
261;SDS011;114;48.260;10.988;2022-08-07T07:14:23;1.90;;;1.37;;
261;SDS011;114;48.260;10.988;2022-08-07T07:16:52;1.00;;;0.90;;
261;SDS011;114;48.260;10.988;2022-08-07T07:19:26;1.73;;;1.27;;
261;SDS011;114;48.260;10.988;2022-08-07T07:21:57;3.17;;;1.40;;
261;SDS011;114;48.260;10.988;2022-08-07T07:24:24;1.60;;;1.30;;
261;SDS011;114;48.260;10.988;2022-08-07T07:26:50;16.93;;;9.83;;
261;SDS011;114;48.260;10.988;2022-08-07T07:29:22;1.73;;;1.53;;
261;SDS011;114;48.260;10.988;2022-08-07T07:31:55;2.23;;;1.40;;
261;SDS011;114;48.260;10.988;2022-08-07T07:34:26;10.43;;;1.40;;
261;SDS011;114;48.260;10.988;2022-08-07T07:36:57;1.20;;;0.97;;
261;SDS011;114;48.260;10.988;2022-08-07T07:39:26;1.67;;;1.57;;
261;SDS011;114;48.260;10.988;2022-08-07T07:41:53;5.70;;;1.77;;
261;SDS011;114;48.260;10.988;2022-08-07T07:44:20;2.50;;;2.30;;
261;SDS011;114;48.260;10.988;2022-08-07T07:46:51;2.50;;;1.50;;
261;SDS011;114;48.260;10.988;2022-08-07T07:49:18;4.17;;;1.60;;
261;SDS011;114;48.260;10.988;2022-08-07T07:51:47;1.83;;;1.73;;
261;SDS011;114;48.260;10.988;2022-08-07T07:54:13;4.03;;;1.80;;
261;SDS011;114;48.260;10.988;2022-08-07T07:56:44;2.60;;;2.30;;
261;SDS011;114;48.260;10.988;2022-08-07T07:59:12;2.70;;;2.27;;
261;SDS011;114;48.260;10.988;2022-08-07T08:01:41;4.23;;;3.07;;
261;SDS011;114;48.260;10.988;2022-08-07T08:04:09;3.63;;;2.50;;
261;SDS011;114;48.260;10.988;2022-08-07T08:06:38;3.23;;;2.93;;
261;SDS011;114;48.260;10.988;2022-08-07T08:09:07;3.20;;;1.90;;
261;SDS011;114;48.260;10.988;2022-08-07T08:11:33;5.73;;;2.70;;
261;SDS011;114;48.260;10.988;2022-08-07T08:14:02;3.63;;;2.27;;
261;SDS011;114;48.260;10.988;2022-08-07T08:16:39;6.93;;;2.10;;
261;SDS011;114;48.260;10.988;2022-08-07T08:19:08;2.67;;;2.50;;
261;SDS011;114;48.260;10.988;2022-08-07T08:21:38;1.90;;;1.70;;
261;SDS011;114;48.260;10.988;2022-08-07T08:24:28;2.03;;;1.93;;
261;SDS011;114;48.260;10.988;2022-08-07T08:27:15;1.93;;;1.73;;
261;SDS011;114;48.260;10.988;2022-08-07T08:29:48;2.37;;;2.20;;
261;SDS011;114;48.260;10.988;2022-08-07T08:32:17;2.20;;;2.00;;
261;SDS011;114;48.260;10.988;2022-08-07T08:34:46;1.90;;;1.80;;
261;SDS011;114;48.260;10.988;2022-08-07T08:37:15;1.93;;;1.83;;
261;SDS011;114;48.260;10.988;2022-08-07T08:39:42;6.53;;;1.70;;
261;SDS011;114;48.260;10.988;2022-08-07T08:42:21;1.87;;;1.40;;
261;SDS011;114;48.260;10.988;2022-08-07T08:44:53;3.90;;;1.63;;
261;SDS011;114;48.260;10.988;2022-08-07T09:00:52;2.03;;;1.80;;
261;SDS011;114;48.260;10.988;2022-08-07T09:03:24;2.60;;;1.50;;
261;SDS011;114;48.260;10.988;2022-08-07T09:06:03;5.80;;;1.93;;
261;SDS011;114;48.260;10.988;2022-08-07T09:11:15;3.47;;;1.33;;
261;SDS011;114;48.260;10.988;2022-08-07T09:19:29;1.80;;;1.70;;
261;SDS011;114;48.260;10.988;2022-08-07T09:31:05;1.40;;;1.30;;
261;SDS011;114;48.260;10.988;2022-08-07T09:36:21;1.27;;;1.17;;
261;SDS011;114;48.260;10.988;2022-08-07T09:47:05;2.67;;;1.20;;
261;SDS011;114;48.260;10.988;2022-08-07T09:50:00;4.93;;;1.20;;
261;SDS011;114;48.260;10.988;2022-08-07T09:52:41;4.20;;;1.60;;
261;SDS011;114;48.260;10.988;2022-08-07T10:07:16;1.27;;;1.10;;
261;SDS011;114;48.260;10.988;2022-08-07T10:15:43;1.13;;;1.03;;
261;SDS011;114;48.260;10.988;2022-08-07T10:21:55;2.60;;;1.50;;
261;SDS011;114;48.260;10.988;2022-08-07T10:30:32;6.83;;;0.90;;
261;SDS011;114;48.260;10.988;2022-08-07T10:33:21;2.77;;;1.73;;
261;SDS011;114;48.260;10.988;2022-08-07T10:36:21;1.27;;;1.10;;
261;SDS011;114;48.260;10.988;2022-08-07T10:42:02;1.53;;;1.43;;
261;SDS011;114;48.260;10.988;2022-08-07T10:44:18;1.40;;;1.30;;
261;SDS011;114;48.260;10.988;2022-08-07T10:49:38;1.20;;;1.10;;
261;SDS011;114;48.260;10.988;2022-08-07T10:54:58;1.40;;;1.30;;
261;SDS011;114;48.260;10.988;2022-08-07T10:57:57;1.60;;;1.07;;
261;SDS011;114;48.260;10.988;2022-08-07T11:00:23;8.33;;;1.10;;
261;SDS011;114;48.260;10.988;2022-08-07T11:05:29;1.20;;;1.10;;
261;SDS011;114;48.260;10.988;2022-08-07T11:08:25;1.20;;;1.10;;
261;SDS011;114;48.260;10.988;2022-08-07T11:11:13;4.50;;;1.40;;
261;SDS011;114;48.260;10.988;2022-08-07T11:13:55;1.73;;;1.07;;
261;SDS011;114;48.260;10.988;2022-08-07T11:16:32;8.97;;;1.20;;
261;SDS011;114;48.260;10.988;2022-08-07T11:21:52;1.10;;;1.00;;
261;SDS011;114;48.260;10.988;2022-08-07T11:30:16;2.50;;;1.00;;
261;SDS011;114;48.260;10.988;2022-08-07T11:35:56;1.33;;;1.07;;
261;SDS011;114;48.260;10.988;2022-08-07T11:38:52;1.47;;;0.80;;
261;SDS011;114;48.260;10.988;2022-08-07T11:41:41;3.07;;;1.10;;
261;SDS011;114;48.260;10.988;2022-08-07T11:56:19;3.73;;;0.90;;
261;SDS011;114;48.260;10.988;2022-08-07T12:07:35;1.70;;;0.97;;
261;SDS011;114;48.260;10.988;2022-08-07T12:10:17;1.83;;;0.73;;
261;SDS011;114;48.260;10.988;2022-08-07T12:15:26;1.47;;;0.80;;
261;SDS011;114;48.260;10.988;2022-08-07T12:20:57;1.75;;;0.82;;
261;SDS011;114;48.260;10.988;2022-08-07T12:23:45;1.77;;;0.93;;
261;SDS011;114;48.260;10.988;2022-08-07T12:34:25;2.40;;;0.77;;
261;SDS011;114;48.260;10.988;2022-08-07T12:36:53;1.95;;;0.80;;
261;SDS011;114;48.260;10.988;2022-08-07T12:39:21;2.22;;;0.52;;
261;SDS011;114;48.260;10.988;2022-08-07T12:41:49;1.00;;;0.60;;
261;SDS011;114;48.260;10.988;2022-08-07T12:44:17;0.80;;;0.70;;
261;SDS011;114;48.260;10.988;2022-08-07T12:52:15;2.60;;;0.50;;
261;SDS011;114;48.260;10.988;2022-08-07T12:57:47;1.02;;;0.50;;
261;SDS011;114;48.260;10.988;2022-08-07T13:00:14;1.05;;;0.70;;
261;SDS011;114;48.260;10.988;2022-08-07T13:20:29;3.05;;;0.85;;
261;SDS011;114;48.260;10.988;2022-08-07T13:23:16;1.20;;;0.50;;
261;SDS011;114;48.260;10.988;2022-08-07T13:26:24;0.55;;;0.45;;
261;SDS011;114;48.260;10.988;2022-08-07T13:29:00;6.05;;;0.40;;
261;SDS011;114;48.260;10.988;2022-08-07T13:31:39;2.13;;;0.68;;
261;SDS011;114;48.260;10.988;2022-08-07T13:34:12;2.17;;;0.43;;
261;SDS011;114;48.260;10.988;2022-08-07T13:36:56;0.70;;;0.50;;
261;SDS011;114;48.260;10.988;2022-08-07T13:42:34;0.90;;;0.45;;
261;SDS011;114;48.260;10.988;2022-08-07T13:45:03;6.68;;;1.15;;
261;SDS011;114;48.260;10.988;2022-08-07T13:47:33;3.85;;;0.50;;
261;SDS011;114;48.260;10.988;2022-08-07T13:50:02;2.10;;;0.70;;
261;SDS011;114;48.260;10.988;2022-08-07T13:52:31;0.50;;;0.40;;
261;SDS011;114;48.260;10.988;2022-08-07T13:55:04;1.98;;;0.90;;
261;SDS011;114;48.260;10.988;2022-08-07T13:57:37;2.60;;;0.45;;
261;SDS011;114;48.260;10.988;2022-08-07T14:00:07;0.85;;;0.50;;
261;SDS011;114;48.260;10.988;2022-08-07T14:02:36;0.50;;;0.50;;
261;SDS011;114;48.260;10.988;2022-08-07T14:05:08;1.20;;;0.40;;
261;SDS011;114;48.260;10.988;2022-08-07T14:07:38;2.00;;;0.60;;
261;SDS011;114;48.260;10.988;2022-08-07T14:10:10;2.80;;;0.77;;
261;SDS011;114;48.260;10.988;2022-08-07T14:15:59;9.23;;;1.52;;
261;SDS011;114;48.260;10.988;2022-08-07T14:18:53;1.15;;;0.63;;
261;SDS011;114;48.260;10.988;2022-08-07T14:21:28;5.10;;;4.75;;
261;SDS011;114;48.260;10.988;2022-08-07T14:24:10;2.85;;;1.08;;
261;SDS011;114;48.260;10.988;2022-08-07T14:27:05;2.13;;;0.90;;
261;SDS011;114;48.260;10.988;2022-08-07T14:29:33;1.35;;;0.60;;
261;SDS011;114;48.260;10.988;2022-08-07T14:32:04;1.50;;;0.50;;
261;SDS011;114;48.260;10.988;2022-08-07T14:34:33;3.92;;;0.60;;
261;SDS011;114;48.260;10.988;2022-08-07T14:37:07;0.60;;;0.40;;
261;SDS011;114;48.260;10.988;2022-08-07T14:39:39;0.60;;;0.50;;
261;SDS011;114;48.260;10.988;2022-08-07T14:42:08;1.10;;;0.98;;
261;SDS011;114;48.260;10.988;2022-08-07T14:44:46;0.63;;;0.40;;
261;SDS011;114;48.260;10.988;2022-08-07T14:47:16;0.70;;;0.55;;
261;SDS011;114;48.260;10.988;2022-08-07T14:49:43;1.02;;;0.50;;
261;SDS011;114;48.260;10.988;2022-08-07T14:52:10;5.60;;;0.60;;
261;SDS011;114;48.260;10.988;2022-08-07T14:54:37;1.25;;;0.65;;
261;SDS011;114;48.260;10.988;2022-08-07T14:57:05;0.70;;;0.70;;
261;SDS011;114;48.260;10.988;2022-08-07T14:59:35;0.50;;;0.50;;
261;SDS011;114;48.260;10.988;2022-08-07T15:02:09;6.57;;;0.68;;
261;SDS011;114;48.260;10.988;2022-08-07T15:04:42;4.07;;;0.77;;
261;SDS011;114;48.260;10.988;2022-08-07T15:07:11;0.50;;;0.40;;
261;SDS011;114;48.260;10.988;2022-08-07T15:09:41;4.15;;;0.70;;
261;SDS011;114;48.260;10.988;2022-08-07T15:12:10;2.13;;;0.60;;
261;SDS011;114;48.260;10.988;2022-08-07T15:14:50;0.70;;;0.52;;
261;SDS011;114;48.260;10.988;2022-08-07T15:17:30;3.10;;;1.35;;
261;SDS011;114;48.260;10.988;2022-08-07T15:20:03;1.15;;;0.68;;
261;SDS011;114;48.260;10.988;2022-08-07T15:22:44;1.92;;;0.60;;
261;SDS011;114;48.260;10.988;2022-08-07T15:25:13;9.20;;;1.20;;
261;SDS011;114;48.260;10.988;2022-08-07T15:27:41;3.97;;;0.70;;
261;SDS011;114;48.260;10.988;2022-08-07T15:30:10;0.60;;;0.60;;
261;SDS011;114;48.260;10.988;2022-08-07T15:32:41;1.25;;;0.68;;
261;SDS011;114;48.260;10.988;2022-08-07T15:35:14;0.60;;;0.50;;
261;SDS011;114;48.260;10.988;2022-08-07T15:37:47;1.98;;;0.60;;
261;SDS011;114;48.260;10.988;2022-08-07T15:40:16;1.30;;;0.80;;
261;SDS011;114;48.260;10.988;2022-08-07T15:45:14;3.15;;;0.90;;
261;SDS011;114;48.260;10.988;2022-08-07T15:47:54;2.80;;;0.60;;
261;SDS011;114;48.260;10.988;2022-08-07T15:50:40;1.90;;;0.80;;
261;SDS011;114;48.260;10.988;2022-08-07T15:53:09;0.57;;;0.53;;
261;SDS011;114;48.260;10.988;2022-08-07T15:55:43;1.10;;;1.00;;
261;SDS011;114;48.260;10.988;2022-08-07T15:58:15;1.30;;;1.20;;
261;SDS011;114;48.260;10.988;2022-08-07T16:00:45;5.10;;;1.47;;
261;SDS011;114;48.260;10.988;2022-08-07T16:03:16;1.33;;;1.20;;
261;SDS011;114;48.260;10.988;2022-08-07T16:05:44;0.73;;;0.73;;
261;SDS011;114;48.260;10.988;2022-08-07T16:08:14;3.20;;;0.90;;
261;SDS011;114;48.260;10.988;2022-08-07T16:10:42;12.63;;;1.30;;
261;SDS011;114;48.260;10.988;2022-08-07T16:15:59;2.67;;;1.20;;
261;SDS011;114;48.260;10.988;2022-08-07T16:21:37;1.53;;;1.00;;
261;SDS011;114;48.260;10.988;2022-08-07T16:24:22;0.80;;;0.60;;
261;SDS011;114;48.260;10.988;2022-08-07T16:27:02;2.53;;;0.97;;
261;SDS011;114;48.260;10.988;2022-08-07T16:29:52;2.30;;;1.10;;
261;SDS011;114;48.260;10.988;2022-08-07T16:46:49;1.50;;;1.40;;
261;SDS011;114;48.260;10.988;2022-08-07T16:54:48;1.20;;;1.10;;
261;SDS011;114;48.260;10.988;2022-08-07T16:57:52;1.23;;;0.90;;
261;SDS011;114;48.260;10.988;2022-08-07T17:00:40;1.63;;;1.10;;
261;SDS011;114;48.260;10.988;2022-08-07T17:03:16;3.00;;;0.80;;
261;SDS011;114;48.260;10.988;2022-08-07T17:08:48;2.03;;;1.10;;
261;SDS011;114;48.260;10.988;2022-08-07T17:11:44;4.37;;;1.40;;
261;SDS011;114;48.260;10.988;2022-08-07T17:14:40;2.93;;;1.20;;
261;SDS011;114;48.260;10.988;2022-08-07T17:17:29;1.40;;;1.30;;
261;SDS011;114;48.260;10.988;2022-08-07T17:20:21;2.20;;;1.43;;
261;SDS011;114;48.260;10.988;2022-08-07T17:25:40;2.53;;;1.50;;
261;SDS011;114;48.260;10.988;2022-08-07T17:28:33;2.03;;;1.20;;
261;SDS011;114;48.260;10.988;2022-08-07T17:31:10;1.93;;;1.20;;
261;SDS011;114;48.260;10.988;2022-08-07T17:33:49;2.50;;;1.20;;
261;SDS011;114;48.260;10.988;2022-08-07T17:36:22;5.13;;;1.17;;
261;SDS011;114;48.260;10.988;2022-08-07T17:44:45;1.63;;;1.53;;
261;SDS011;114;48.260;10.988;2022-08-07T17:49:55;1.20;;;1.10;;
261;SDS011;114;48.260;10.988;2022-08-07T17:55:12;3.53;;;1.40;;
261;SDS011;114;48.260;10.988;2022-08-07T17:57:48;2.47;;;1.30;;
261;SDS011;114;48.260;10.988;2022-08-07T18:00:20;1.40;;;1.30;;
261;SDS011;114;48.260;10.988;2022-08-07T18:05:51;3.10;;;1.40;;
261;SDS011;114;48.260;10.988;2022-08-07T18:08:34;1.97;;;1.40;;
261;SDS011;114;48.260;10.988;2022-08-07T18:16:18;3.70;;;1.60;;
261;SDS011;114;48.260;10.988;2022-08-07T18:18:55;6.53;;;1.80;;
261;SDS011;114;48.260;10.988;2022-08-07T18:21:32;1.67;;;1.57;;
261;SDS011;114;48.260;10.988;2022-08-07T18:29:33;3.47;;;1.60;;
261;SDS011;114;48.260;10.988;2022-08-07T18:43:37;1.90;;;1.80;;
261;SDS011;114;48.260;10.988;2022-08-07T18:46:28;2.03;;;1.87;;
261;SDS011;114;48.260;10.988;2022-08-07T18:49:51;1.73;;;1.60;;
261;SDS011;114;48.260;10.988;2022-08-07T18:52:24;3.20;;;1.57;;
261;SDS011;114;48.260;10.988;2022-08-07T19:00:41;1.70;;;1.60;;
261;SDS011;114;48.260;10.988;2022-08-07T19:11:25;1.50;;;1.50;;
261;SDS011;114;48.260;10.988;2022-08-07T19:16:56;1.80;;;1.70;;
261;SDS011;114;48.260;10.988;2022-08-07T19:19:29;2.87;;;2.33;;
261;SDS011;114;48.260;10.988;2022-08-07T19:24:59;2.63;;;2.47;;
261;SDS011;114;48.260;10.988;2022-08-07T19:27:29;2.33;;;2.23;;
261;SDS011;114;48.260;10.988;2022-08-07T19:30:02;2.57;;;2.37;;
261;SDS011;114;48.260;10.988;2022-08-07T19:32:33;2.87;;;2.40;;
261;SDS011;114;48.260;10.988;2022-08-07T19:35:10;2.17;;;2.07;;
261;SDS011;114;48.260;10.988;2022-08-07T19:37:40;2.30;;;2.20;;
261;SDS011;114;48.260;10.988;2022-08-07T19:40:09;2.37;;;2.27;;
261;SDS011;114;48.260;10.988;2022-08-07T19:42:41;6.40;;;2.30;;
261;SDS011;114;48.260;10.988;2022-08-07T19:45:11;3.67;;;2.20;;
261;SDS011;114;48.260;10.988;2022-08-07T19:47:42;3.23;;;2.57;;
261;SDS011;114;48.260;10.988;2022-08-07T19:50:13;2.13;;;1.97;;
261;SDS011;114;48.260;10.988;2022-08-07T19:52:40;2.60;;;2.40;;
261;SDS011;114;48.260;10.988;2022-08-07T19:55:06;2.17;;;2.07;;
261;SDS011;114;48.260;10.988;2022-08-07T19:57:40;2.70;;;2.50;;
261;SDS011;114;48.260;10.988;2022-08-07T20:00:08;2.73;;;2.53;;
261;SDS011;114;48.260;10.988;2022-08-07T20:02:40;4.73;;;3.30;;
261;SDS011;114;48.260;10.988;2022-08-07T20:05:11;3.67;;;2.90;;
261;SDS011;114;48.260;10.988;2022-08-07T20:07:40;2.53;;;2.30;;
261;SDS011;114;48.260;10.988;2022-08-07T20:10:11;3.67;;;3.00;;
261;SDS011;114;48.260;10.988;2022-08-07T20:12:38;2.27;;;2.17;;